createdAt,value
2023-01-18T00:04:37.170Z,4.40
2023-01-18T00:10:39.450Z,4.70
2023-01-18T00:16:41.651Z,5.55
2023-01-18T00:22:43.645Z,3.33
2023-01-18T00:28:46.067Z,5.63
2023-01-18T00:34:50.503Z,5.82
2023-01-18T00:40:52.876Z,5.07
2023-01-18T00:46:56.557Z,5.87
2023-01-18T00:53:00.821Z,6.63
2023-01-18T00:59:03.489Z,6.50
2023-01-18T01:05:24.457Z,6.20
2023-01-18T01:11:26.773Z,6.60
2023-01-18T01:17:49.106Z,6.53
2023-01-18T01:24:10.047Z,7.38
2023-01-18T01:30:12.645Z,8.60
2023-01-18T01:36:20.652Z,6.20
2023-01-18T01:42:30.496Z,7.72
2023-01-18T01:48:32.861Z,6.47
2023-01-18T01:54:38.573Z,6.70
2023-01-18T02:00:41.379Z,7.10
2023-01-18T02:12:49.857Z,6.90
2023-01-18T02:19:14.224Z,8.95
2023-01-18T02:25:46.900Z,10.90
2023-01-18T02:32:08.661Z,10.95
2023-01-18T02:38:19.427Z,10.23
2023-01-18T02:44:49.081Z,9.57
2023-01-18T02:50:51.701Z,14.15
2023-01-18T02:56:55.814Z,13.65
2023-01-18T03:02:59.970Z,14.63
2023-01-18T03:09:04.049Z,15.02
2023-01-18T03:15:40.272Z,16.98
2023-01-18T03:21:47.826Z,16.15
2023-01-18T03:28:11.233Z,17.08
2023-01-18T03:34:18.527Z,17.58
2023-01-18T03:40:24.891Z,20.48
2023-01-18T03:46:30.852Z,18.35
2023-01-18T03:52:42.322Z,19.27
2023-01-18T03:58:45.578Z,18.83
2023-01-18T04:04:49.639Z,18.67
2023-01-18T04:10:51.731Z,19.00
2023-01-18T04:16:53.857Z,19.77
2023-01-18T04:22:56.771Z,19.52
2023-01-18T04:28:59.545Z,20.42
2023-01-18T04:35:02.284Z,18.10
2023-01-18T04:47:07.563Z,17.30
2023-01-18T04:53:09.641Z,17.83
2023-01-18T04:59:16.558Z,18.93
2023-01-18T05:05:18.645Z,15.73
2023-01-18T05:11:23.432Z,17.30
2023-01-18T05:17:30.673Z,18.00
2023-01-18T05:23:32.906Z,16.85
2023-01-18T05:29:35.058Z,16.80
2023-01-18T05:35:37.413Z,18.13
2023-01-18T05:41:39.730Z,17.20
2023-01-18T05:47:42.217Z,18.00
2023-01-18T05:53:44.290Z,18.38
2023-01-18T05:59:46.478Z,16.60
2023-01-18T06:05:49.051Z,17.15
2023-01-18T06:11:51.278Z,16.38
2023-01-18T06:17:53.405Z,17.85
2023-01-18T06:23:55.579Z,18.80
2023-01-18T06:29:58.170Z,17.77
2023-01-18T06:42:03.862Z,17.95
2023-01-18T06:48:06.177Z,22.63
2023-01-18T06:54:09.008Z,21.10
2023-01-18T07:00:12.289Z,20.83
2023-01-18T07:06:14.399Z,19.88
2023-01-18T07:12:16.714Z,19.83
2023-01-18T07:18:18.957Z,15.50
2023-01-18T07:24:21.255Z,10.18
2023-01-18T07:30:23.994Z,8.30
2023-01-18T07:36:26.800Z,5.70
2023-01-18T07:42:29.485Z,4.53
2023-01-18T07:48:32.147Z,3.08
2023-01-18T07:54:34.334Z,3.10
2023-01-18T08:00:36.402Z,3.92
2023-01-18T08:06:38.489Z,3.15
2023-01-18T08:12:40.987Z,3.58
2023-01-18T08:18:45.463Z,3.42
2023-01-18T08:24:47.790Z,3.38
2023-01-18T08:30:54.522Z,3.42
2023-01-18T08:36:56.845Z,2.55
2023-01-18T08:55:08.125Z,2.30
2023-01-18T09:01:11.255Z,2.78
2023-01-18T09:07:13.675Z,2.95
2023-01-18T09:19:18.244Z,2.75
2023-01-18T09:31:26.090Z,3.22
2023-01-18T09:37:28.712Z,2.15
2023-01-18T09:43:48.665Z,3.20
2023-01-18T09:50:24.494Z,3.22
2023-01-18T09:56:32.000Z,3.13
2023-01-18T10:02:41.233Z,3.30
2023-01-18T10:08:55.043Z,2.55
2023-01-18T10:15:10.947Z,2.45
2023-01-18T10:21:27.154Z,2.50
2023-01-18T10:27:49.068Z,2.65
2023-01-18T10:33:55.737Z,2.60
2023-01-18T10:40:06.443Z,2.13
2023-01-18T10:46:20.179Z,2.70
2023-01-18T10:52:31.780Z,3.05
2023-01-18T10:58:40.432Z,3.38
2023-01-18T11:04:42.839Z,2.17
2023-01-18T11:17:20.110Z,2.40
2023-01-18T11:23:28.773Z,2.85
2023-01-18T11:29:40.076Z,3.55
2023-01-18T11:35:43.155Z,2.85
2023-01-18T11:41:45.411Z,2.38
2023-01-18T11:48:00.063Z,2.85
2023-01-18T11:54:26.909Z,2.28
2023-01-18T12:00:38.012Z,2.33
2023-01-18T12:07:08.625Z,2.58
2023-01-18T12:13:39.599Z,2.97
2023-01-18T12:20:06.686Z,3.45
2023-01-18T12:26:46.925Z,2.90
2023-01-18T12:33:11.312Z,2.92
2023-01-18T12:39:34.963Z,2.90
2023-01-18T12:45:42.077Z,2.72
2023-01-18T12:51:47.914Z,2.83
2023-01-18T12:57:54.247Z,1.95
2023-01-18T13:04:07.519Z,2.92
2023-01-18T13:10:21.786Z,2.35
2023-01-18T13:16:44.734Z,2.85
2023-01-18T13:23:16.393Z,3.88
2023-01-18T13:29:24.318Z,2.50
2023-01-18T13:35:33.924Z,2.70
2023-01-18T13:41:36.450Z,2.40
2023-01-18T13:53:50.601Z,2.80
2023-01-18T13:59:52.925Z,3.17
2023-01-18T14:05:57.545Z,3.45
2023-01-18T14:12:00.053Z,3.25
2023-01-18T14:24:15.352Z,3.17
2023-01-18T14:30:21.594Z,3.25
2023-01-18T14:36:26.593Z,2.83
2023-01-18T14:42:28.877Z,4.40
2023-01-18T14:48:34.885Z,2.72
2023-01-18T14:54:37.535Z,2.70
2023-01-18T15:06:57.005Z,2.85
2023-01-18T15:13:00.297Z,3.88
2023-01-18T15:19:03.421Z,4.63
2023-01-18T15:25:15.337Z,4.43
2023-01-18T15:31:17.670Z,3.33
2023-01-18T15:37:32.681Z,3.17
2023-01-18T15:43:42.350Z,3.58
2023-01-18T15:49:48.084Z,3.15
2023-01-18T15:55:58.826Z,4.25
2023-01-18T16:02:17.719Z,4.43
2023-01-18T16:08:22.281Z,4.18
2023-01-18T16:14:33.691Z,4.60
2023-01-18T16:20:36.303Z,4.60
2023-01-18T16:26:42.643Z,4.72
2023-01-18T16:32:44.944Z,4.50
2023-01-18T16:38:47.198Z,3.38
2023-01-18T16:44:49.564Z,3.92
2023-01-18T16:50:52.720Z,4.10
2023-01-18T16:56:55.317Z,3.65
2023-01-18T17:02:58.122Z,3.67
2023-01-18T17:09:01.003Z,4.88
2023-01-18T17:15:04.173Z,7.28
2023-01-18T17:21:06.462Z,5.25
2023-01-18T17:27:12.408Z,5.45
2023-01-18T17:33:20.843Z,4.78
2023-01-18T17:39:28.130Z,6.30
2023-01-18T17:45:42.219Z,5.10
2023-01-18T17:51:46.040Z,6.10
2023-01-18T17:57:48.207Z,6.57
2023-01-18T18:03:52.673Z,9.33
2023-01-18T18:10:00.485Z,7.47
2023-01-18T18:16:04.480Z,5.18
2023-01-18T18:22:06.931Z,5.57
2023-01-18T18:28:09.397Z,6.35
2023-01-18T18:34:12.494Z,6.70
2023-01-18T18:40:14.673Z,6.60
2023-01-18T18:46:16.942Z,9.13
2023-01-18T18:52:19.191Z,8.45
2023-01-18T18:58:22.775Z,10.27
2023-01-18T19:04:26.658Z,10.07
2023-01-18T19:10:30.640Z,14.63
2023-01-18T19:16:33.024Z,14.90
2023-01-18T19:22:38.448Z,13.63
2023-01-18T19:28:41.199Z,14.35
2023-01-18T19:34:43.404Z,14.50
2023-01-18T19:40:45.662Z,14.52
2023-01-18T19:46:47.873Z,16.58
2023-01-18T19:52:50.727Z,14.60
2023-01-18T19:58:53.056Z,11.10
2023-01-18T20:04:58.019Z,8.07
2023-01-18T20:11:08.889Z,11.77
2023-01-18T20:17:12.222Z,9.70
2023-01-18T20:23:14.403Z,8.57
2023-01-18T20:29:17.042Z,9.13
2023-01-18T20:41:21.141Z,10.63
2023-01-18T20:47:23.451Z,11.00
2023-01-18T20:53:30.609Z,10.93
2023-01-18T20:59:33.545Z,11.80
2023-01-18T21:11:38.148Z,10.65
2023-01-18T21:17:40.273Z,10.05
2023-01-18T21:23:42.543Z,10.60
2023-01-18T21:29:45.056Z,12.50
2023-01-18T21:35:47.325Z,11.13
2023-01-18T21:42:08.214Z,11.25
2023-01-18T21:48:10.402Z,11.40
2023-01-18T21:54:15.212Z,11.83
2023-01-18T22:00:17.736Z,12.82
2023-01-18T22:06:19.880Z,10.60
2023-01-18T22:12:25.500Z,11.67
2023-01-18T22:18:27.614Z,12.95
2023-01-18T22:24:29.751Z,13.10
2023-01-18T22:30:32.008Z,12.70
2023-01-18T22:36:34.534Z,11.48
2023-01-18T22:42:37.032Z,11.70
2023-01-18T22:48:40.255Z,14.93
2023-01-18T22:54:42.864Z,13.63
2023-01-18T23:06:50.953Z,11.00
2023-01-18T23:12:53.842Z,11.95
2023-01-18T23:24:58.341Z,8.93
2023-01-18T23:31:00.802Z,7.30
2023-01-18T23:37:02.972Z,9.75
2023-01-18T23:43:23.652Z,7.78
2023-01-18T23:49:44.305Z,7.10
2023-01-18T23:55:46.929Z,7.72
